Time;durP1;ratioP1;P1;durP2;ratioP2;P2;SDS_P1;SDS_P2;PMS_P1;PMS_P2;Temp;Humidity;BMP_temperature;BMP_pressure;BME280_temperature;BME280_humidity;BME280_pressure;Samples;Min_cycle;Max_cycle;Signal;HPM_P1;HPM_P2
2023/03/28 00:00:34;;;;;;;9.65;2.08;;;2.40;99.90;;;;;;5118132;28;20507;-71
2023/03/28 00:03:00;;;;;;;8.00;2.13;;;2.40;99.90;;;;;;5128251;28;20036;-72
2023/03/28 00:05:26;;;;;;;11.68;2.20;;;2.40;99.90;;;;;;5120633;28;20483;-72
2023/03/28 00:07:52;;;;;;;14.85;2.53;;;2.40;99.90;;;;;;5115995;28;20185;-72
2023/03/28 00:10:19;;;;;;;12.50;2.38;;;2.50;99.90;;;;;;5122782;28;20041;-72
2023/03/28 00:12:45;;;;;;;16.40;2.33;;;2.50;99.90;;;;;;5124196;28;20130;-72
2023/03/28 00:15:11;;;;;;;17.95;3.08;;;2.50;99.90;;;;;;5096917;27;20132;-72
2023/03/28 00:17:40;;;;;;;14.93;2.75;;;2.50;99.90;;;;;;5136724;27;20406;-72
2023/03/28 00:20:09;;;;;;;16.42;2.78;;;2.50;99.90;;;;;;5121242;27;20400;-73
2023/03/28 00:22:37;;;;;;;12.63;2.72;;;2.50;99.90;;;;;;5125590;27;20125;-71
2023/03/28 00:25:06;;;;;;;11.85;2.33;;;2.50;99.90;;;;;;5125907;27;20039;-73
2023/03/28 00:27:33;;;;;;;11.82;2.33;;;2.50;99.90;;;;;;5136497;27;20090;-73
2023/03/28 00:30:00;;;;;;;24.38;2.30;;;2.50;99.90;;;;;;5120324;27;20040;-72
2023/03/28 00:32:25;;;;;;;13.00;2.38;;;2.50;99.90;;;;;;5106669;28;20100;-72
2023/03/28 00:34:51;;;;;;;17.67;2.60;;;2.40;99.90;;;;;;5116384;27;20492;-73
2023/03/28 00:37:17;;;;;;;10.18;1.95;;;2.40;99.90;;;;;;5119090;27;20043;-73
2023/03/28 00:39:48;;;;;;;18.65;2.10;;;2.40;99.90;;;;;;5109792;27;20049;-72
2023/03/28 00:42:16;;;;;;;12.45;2.45;;;2.40;99.90;;;;;;5120564;27;20442;-71
2023/03/28 00:44:42;;;;;;;12.77;2.42;;;2.40;99.90;;;;;;5118271;27;20035;-72
2023/03/28 00:47:25;;;;;;;13.90;2.92;;;2.50;99.90;;;;;;5118211;27;20503;-72
2023/03/28 00:50:11;;;;;;;11.55;2.45;;;2.50;99.90;;;;;;5101540;27;20050;-72
2023/03/28 00:52:44;;;;;;;14.52;2.25;;;2.40;99.90;;;;;;5116313;27;20565;-71
2023/03/28 00:55:15;;;;;;;14.45;2.80;;;2.40;99.90;;;;;;5129279;27;20089;-72
2023/03/28 00:57:42;;;;;;;17.15;2.58;;;2.40;99.90;;;;;;5124218;27;20078;-72
2023/03/28 01:00:11;;;;;;;11.70;2.30;;;2.40;99.90;;;;;;5123878;27;20450;-72
2023/03/28 01:02:41;;;;;;;9.48;1.88;;;2.40;99.90;;;;;;5125424;27;20036;-72
2023/03/28 01:05:08;;;;;;;24.25;2.75;;;2.30;99.90;;;;;;5118983;27;20044;-72
2023/03/28 01:07:40;;;;;;;15.18;2.10;;;2.30;99.90;;;;;;5118838;27;20046;-72
2023/03/28 01:10:07;;;;;;;13.45;2.28;;;2.20;99.90;;;;;;5126139;27;20577;-73
2023/03/28 01:12:33;;;;;;;20.45;2.75;;;2.10;99.90;;;;;;5118046;27;20047;-72
2023/03/28 01:15:00;;;;;;;21.70;3.03;;;2.10;99.90;;;;;;5124948;27;20130;-72
2023/03/28 01:17:26;;;;;;;15.35;3.67;;;2.00;99.90;;;;;;5120143;27;20039;-72
2023/03/28 01:19:57;;;;;;;22.88;2.50;;;2.00;99.90;;;;;;5102408;27;20459;-72
2023/03/28 01:22:35;;;;;;;17.40;2.60;;;1.90;99.90;;;;;;5134784;27;20046;-72
2023/03/28 01:25:25;;;;;;;15.55;2.95;;;1.90;99.90;;;;;;5125505;27;20101;-72
2023/03/28 01:28:15;;;;;;;11.88;2.20;;;1.90;99.90;;;;;;5127255;27;20047;-72
2023/03/28 01:31:11;;;;;;;21.65;2.70;;;1.80;99.90;;;;;;5121962;27;20047;-72
2023/03/28 01:34:00;;;;;;;12.02;2.40;;;1.80;99.90;;;;;;5119638;27;20124;-73
2023/03/28 01:36:53;;;;;;;10.73;2.33;;;1.70;99.90;;;;;;5126332;27;20164;-72
2023/03/28 01:40:00;;;;;;;18.52;3.65;;;1.70;99.90;;;;;;5119640;27;20134;-72
2023/03/28 01:42:50;;;;;;;12.10;1.95;;;1.70;99.90;;;;;;5107974;27;20037;-72
2023/03/28 01:45:19;;;;;;;16.20;2.70;;;1.70;99.90;;;;;;5119530;27;20042;-72
2023/03/28 01:47:57;;;;;;;;;;;1.70;99.90;;;;;;5121848;27;20038;-72
2023/03/28 01:50:22;;;;;;;9.48;1.92;;;1.60;99.90;;;;;;5117341;27;19923;-72
2023/03/28 01:53:10;;;;;;;17.55;2.35;;;1.60;99.90;;;;;;5108451;27;20058;-72
2023/03/28 01:56:08;;;;;;;11.13;1.52;;;1.60;99.90;;;;;;5095260;28;20028;-73
2023/03/28 01:58:42;;;;;;;21.33;2.63;;;1.60;99.90;;;;;;5085238;28;20080;-72
2023/03/28 02:01:18;;;;;;;17.38;2.38;;;1.60;99.90;;;;;;5101704;28;20042;-73
2023/03/28 02:03:50;;;;;;;15.02;2.03;;;1.80;99.90;;;;;;5096792;27;20032;-72
2023/03/28 02:06:19;;;;;;;10.27;1.92;;;1.60;99.90;;;;;;5098184;27;20048;-72
2023/03/28 02:08:48;;;;;;;16.27;1.90;;;1.60;99.90;;;;;;5099305;28;20572;-72
2023/03/28 02:11:14;;;;;;;;;;;1.50;99.90;;;;;;5092379;28;20510;-72
2023/03/28 02:13:47;;;;;;;6.65;1.73;;;1.70;99.90;;;;;;5098255;28;20043;-72
2023/03/28 02:16:15;;;;;;;14.88;2.25;;;1.50;99.90;;;;;;5099708;28;20040;-72
2023/03/28 02:18:46;;;;;;;10.15;1.75;;;2.10;99.90;;;;;;5107826;28;20051;-72
2023/03/28 02:21:29;;;;;;;15.02;2.13;;;1.50;99.90;;;;;;5100682;28;20055;-72
2023/03/28 02:23:55;;;;;;;13.48;2.30;;;1.70;99.90;;;;;;5103168;27;20059;-72
2023/03/28 02:26:24;;;;;;;16.50;2.00;;;1.40;99.90;;;;;;5100186;28;20032;-72
2023/03/28 02:28:53;;;;;;;13.82;2.45;;;1.40;99.90;;;;;;5098443;28;20039;-72
2023/03/28 02:31:20;;;;;;;15.68;2.42;;;1.40;99.90;;;;;;5103560;28;20039;-72
2023/03/28 02:33:47;;;;;;;14.65;2.25;;;1.40;99.90;;;;;;5096405;28;20044;-72
2023/03/28 02:36:29;;;;;;;8.90;2.07;;;1.40;99.90;;;;;;5078358;28;20043;-72
2023/03/28 02:39:06;;;;;;;9.25;2.35;;;1.40;99.90;;;;;;5096354;28;20044;-71
2023/03/28 02:41:47;;;;;;;12.43;2.00;;;1.30;99.90;;;;;;5095667;28;20040;-72
2023/03/28 02:44:34;;;;;;;17.83;2.42;;;1.30;99.90;;;;;;5097169;28;20044;-72
2023/03/28 02:47:22;;;;;;;10.27;2.10;;;1.20;99.90;;;;;;5097459;28;20036;-71
2023/03/28 02:49:56;;;;;;;9.90;1.80;;;1.20;99.90;;;;;;5104227;28;20046;-71
2023/03/28 02:52:50;;;;;;;11.95;2.40;;;1.20;99.90;;;;;;5102501;27;20100;-71
2023/03/28 02:55:25;;;;;;;19.02;2.28;;;1.20;99.90;;;;;;5126158;27;20042;-71
2023/03/28 02:58:00;;;;;;;11.30;2.25;;;1.20;99.90;;;;;;5128813;27;20126;-71
2023/03/28 03:00:26;;;;;;;18.38;2.25;;;1.20;99.90;;;;;;5117166;27;20079;-71
2023/03/28 03:02:52;;;;;;;20.45;2.88;;;1.20;99.90;;;;;;5103858;28;20083;-73
2023/03/28 03:05:20;;;;;;;12.75;2.25;;;1.30;99.90;;;;;;5117221;27;20050;-72
2023/03/28 03:07:46;;;;;;;13.43;2.33;;;1.30;99.90;;;;;;5118443;27;20399;-73
2023/03/28 03:10:15;;;;;;;17.70;2.78;;;1.30;99.90;;;;;;5128825;28;20065;-72
2023/03/28 03:12:42;;;;;;;15.68;2.63;;;1.30;99.90;;;;;;5126138;27;20092;-72
2023/03/28 03:15:09;;;;;;;12.85;2.30;;;1.30;99.90;;;;;;5124308;27;20042;-71
2023/03/28 03:17:36;;;;;;;15.25;2.10;;;1.30;99.90;;;;;;5126417;28;20071;-71
2023/03/28 03:20:05;;;;;;;13.90;1.92;;;1.30;99.90;;;;;;5124785;28;20055;-72
2023/03/28 03:22:32;;;;;;;11.50;2.25;;;1.30;99.90;;;;;;5118580;28;20054;-71
2023/03/28 03:25:03;;;;;;;13.93;2.30;;;1.30;99.90;;;;;;5117420;28;20510;-72
2023/03/28 03:27:30;;;;;;;12.98;2.83;;;1.20;99.90;;;;;;5126128;27;20047;-71
2023/03/28 03:29:56;;;;;;;15.38;2.33;;;1.20;99.90;;;;;;5121577;27;20449;-71
2023/03/28 03:32:21;;;;;;;13.00;2.38;;;1.20;99.90;;;;;;5114553;28;20050;-71
2023/03/28 03:34:47;;;;;;;14.25;2.67;;;1.20;99.90;;;;;;5118694;28;20043;-71
2023/03/28 03:37:13;;;;;;;14.23;2.20;;;1.20;99.90;;;;;;5126848;28;20184;-71
2023/03/28 03:39:39;;;;;;;16.15;2.88;;;1.20;99.90;;;;;;5117600;27;20032;-71
2023/03/28 03:42:05;;;;;;;12.95;2.20;;;1.10;99.90;;;;;;5119270;27;20066;-71
2023/03/28 03:44:30;;;;;;;11.00;2.30;;;1.60;99.90;;;;;;5123340;27;20039;-71
2023/03/28 03:46:56;;;;;;;16.48;2.00;;;1.10;99.90;;;;;;5116400;27;20039;-71
2023/03/28 03:49:22;;;;;;;11.80;2.47;;;1.00;99.90;;;;;;5132374;27;20051;-72
2023/03/28 03:51:48;;;;;;;17.88;2.28;;;1.00;99.90;;;;;;5130877;27;20055;-71
2023/03/28 03:54:13;;;;;;;12.73;2.05;;;0.90;99.90;;;;;;5127009;27;20108;-71
2023/03/28 03:56:39;;;;;;;13.50;2.17;;;0.90;99.90;;;;;;5137345;27;20095;-71
2023/03/28 03:59:05;;;;;;;17.20;2.30;;;0.90;99.90;;;;;;5119869;27;20050;-72
2023/03/28 04:01:31;;;;;;;13.82;2.72;;;0.80;99.90;;;;;;5128354;27;20391;-72
2023/03/28 04:03:57;;;;;;;14.48;2.60;;;0.80;99.90;;;;;;5122595;27;20039;-72
2023/03/28 04:06:23;;;;;;;18.90;2.78;;;0.70;99.90;;;;;;5126625;27;20051;-72
2023/03/28 04:08:50;;;;;;;14.05;2.33;;;0.70;99.90;;;;;;5128999;27;20031;-73
2023/03/28 04:11:16;;;;;;;21.85;2.58;;;0.70;99.90;;;;;;5123486;27;20046;-72
2023/03/28 04:13:41;;;;;;;15.55;2.40;;;0.60;99.90;;;;;;5126126;27;20039;-73
2023/03/28 04:16:08;;;;;;;14.82;2.47;;;0.60;99.90;;;;;;5113635;27;20136;-71
2023/03/28 04:18:34;;;;;;;20.42;2.88;;;0.60;99.90;;;;;;5129961;27;20511;-71
2023/03/28 04:21:01;;;;;;;12.77;2.38;;;0.50;99.90;;;;;;5135809;27;20045;-71
2023/03/28 04:23:27;;;;;;;13.10;2.30;;;0.50;99.90;;;;;;5129335;27;20043;-72
2023/03/28 04:25:57;;;;;;;15.13;3.45;;;0.50;99.90;;;;;;5117254;27;20127;-72
2023/03/28 04:28:24;;;;;;;17.50;2.45;;;0.50;99.90;;;;;;5121304;27;20072;-72
2023/03/28 04:30:57;;;;;;;12.35;2.58;;;0.50;99.90;;;;;;5130799;27;20039;-72
2023/03/28 04:33:32;;;;;;;15.02;3.97;;;0.40;99.90;;;;;;5129529;27;20043;-72
2023/03/28 04:36:00;;;;;;;22.15;3.53;;;0.50;99.90;;;;;;5121337;27;20369;-72
2023/03/28 04:38:28;;;;;;;15.45;2.63;;;0.40;99.90;;;;;;5121268;27;20049;-72
2023/03/28 04:40:56;;;;;;;12.20;2.47;;;0.50;99.90;;;;;;5120822;27;20396;-72
2023/03/28 04:43:25;;;;;;;14.48;4.22;;;0.50;99.90;;;;;;5127066;27;20521;-71
2023/03/28 04:45:53;;;;;;;20.27;3.78;;;0.40;99.90;;;;;;5125079;27;20043;-71
2023/03/28 04:48:18;;;;;;;12.02;2.63;;;0.50;99.90;;;;;;5123070;27;20062;-71
2023/03/28 04:50:44;;;;;;;13.13;2.78;;;0.40;99.90;;;;;;5118559;27;20430;-72
2023/03/28 04:53:11;;;;;;;17.27;2.97;;;0.40;99.90;;;;;;5116710;27;20047;-71
2023/03/28 04:55:37;;;;;;;13.82;2.75;;;0.40;99.90;;;;;;5129735;27;20286;-71
2023/03/28 04:58:04;;;;;;;17.33;3.85;;;0.40;99.90;;;;;;5095900;27;20058;-72
2023/03/28 05:00:29;;;;;;;15.63;2.40;;;0.40;99.90;;;;;;5117350;27;20092;-72
2023/03/28 05:02:58;;;;;;;22.55;2.80;;;0.80;99.90;;;;;;5120959;27;20031;-71
2023/03/28 05:05:24;;;;;;;13.10;2.25;;;1.00;99.90;;;;;;5122962;27;20295;-71
2023/03/28 05:07:50;;;;;;;17.02;2.40;;;0.50;99.90;;;;;;5121230;27;20043;-71
2023/03/28 05:10:15;;;;;;;18.92;2.92;;;0.40;99.90;;;;;;5102147;27;20071;-71
2023/03/28 05:12:41;;;;;;;17.27;2.80;;;0.50;99.90;;;;;;5130998;27;20050;-71
2023/03/28 05:15:07;;;;;;;19.25;2.70;;;0.50;99.90;;;;;;5124216;27;20039;-72
2023/03/28 05:17:33;;;;;;;10.57;2.28;;;0.50;99.90;;;;;;5119772;27;20039;-71
2023/03/28 05:19:59;;;;;;;14.38;3.05;;;0.50;99.90;;;;;;5122446;27;20036;-72
2023/03/28 05:22:24;;;;;;;24.85;2.70;;;0.50;99.90;;;;;;5124767;27;20062;-71
2023/03/28 05:24:50;;;;;;;16.17;2.63;;;0.50;99.90;;;;;;5120277;27;20088;-72
2023/03/28 05:27:16;;;;;;;16.60;2.83;;;0.50;99.90;;;;;;5120855;27;20118;-72
2023/03/28 05:29:42;;;;;;;13.02;2.53;;;0.50;99.90;;;;;;5118678;27;20053;-72
2023/03/28 05:32:08;;;;;;;11.00;2.50;;;0.60;99.90;;;;;;5128405;27;20118;-72
2023/03/28 05:34:34;;;;;;;9.65;2.55;;;0.60;99.90;;;;;;5124986;27;20091;-72
2023/03/28 05:37:01;;;;;;;12.65;2.72;;;0.70;99.90;;;;;;5127365;27;20044;-72
2023/03/28 05:39:27;;;;;;;12.50;2.85;;;0.80;99.90;;;;;;5121516;27;20448;-72
2023/03/28 05:41:53;;;;;;;19.20;2.88;;;0.80;99.90;;;;;;5107450;27;20047;-72
2023/03/28 05:44:21;;;;;;;19.65;3.17;;;0.90;99.90;;;;;;5122763;27;20123;-73
2023/03/28 05:46:47;;;;;;;;;;;1.00;99.90;;;;;;5123132;27;20046;-72
2023/03/28 05:49:13;;;;;;;14.23;2.72;;;1.10;99.90;;;;;;5136646;27;20017;-72
2023/03/28 05:51:38;;;;;;;18.38;2.78;;;1.20;99.90;;;;;;5126454;27;20073;-72
2023/03/28 05:54:04;;;;;;;15.00;3.00;;;1.20;99.90;;;;;;5127823;27;20442;-71
2023/03/28 05:56:34;;;;;;;17.42;2.70;;;1.30;99.90;;;;;;5122411;27;20039;-72
2023/03/28 05:59:00;;;;;;;19.52;3.15;;;1.30;99.90;;;;;;5116430;27;20035;-71
2023/03/28 06:01:27;;;;;;;22.05;3.00;;;1.40;99.90;;;;;;5121121;27;20047;-71
2023/03/28 06:03:54;;;;;;;14.43;2.83;;;1.40;99.90;;;;;;5115007;28;20040;-71
2023/03/28 06:06:20;;;;;;;21.25;3.20;;;1.50;99.90;;;;;;5119378;27;20035;-72
2023/03/28 06:08:46;;;;;;;19.33;4.15;;;1.60;99.90;;;;;;5133982;27;20031;-72
2023/03/28 06:11:12;;;;;;;11.98;3.30;;;1.80;99.90;;;;;;5133709;27;20054;-72
2023/03/28 06:13:38;;;;;;;14.20;2.80;;;1.90;99.90;;;;;;5140310;27;20396;-72
2023/03/28 06:16:04;;;;;;;9.98;2.75;;;2.00;99.90;;;;;;5116101;27;20046;-72
2023/03/28 06:18:29;;;;;;;10.38;2.67;;;2.10;99.90;;;;;;5134017;27;20050;-72
2023/03/28 06:20:55;;;;;;;14.57;3.50;;;2.20;99.90;;;;;;5134117;27;20043;-72
2023/03/28 06:23:21;;;;;;;9.13;2.63;;;2.30;99.90;;;;;;5097753;27;20039;-72
2023/03/28 06:25:47;;;;;;;23.30;4.03;;;2.40;99.90;;;;;;5130819;27;20122;-72
2023/03/28 06:28:13;;;;;;;10.40;3.00;;;2.50;99.90;;;;;;5134150;27;20050;-72
2023/03/28 06:30:41;;;;;;;17.00;3.05;;;2.50;99.90;;;;;;5128628;27;20046;-72
2023/03/28 06:33:07;;;;;;;17.10;3.65;;;2.70;99.90;;;;;;5123375;27;20043;-72
2023/03/28 06:35:33;;;;;;;18.42;3.25;;;2.80;99.90;;;;;;5113553;28;20040;-72
2023/03/28 06:37:59;;;;;;;18.38;3.55;;;2.90;99.90;;;;;;5112998;27;20039;-72
2023/03/28 06:40:25;;;;;;;16.48;2.72;;;3.00;99.90;;;;;;5114226;28;20054;-72
2023/03/28 06:42:52;;;;;;;19.70;2.97;;;3.10;99.90;;;;;;5114331;28;20035;-72
2023/03/28 06:45:18;;;;;;;18.90;3.42;;;3.40;99.90;;;;;;5112900;27;20035;-72
2023/03/28 06:47:44;;;;;;;21.15;3.53;;;3.20;99.90;;;;;;5126829;27;20497;-72
2023/03/28 06:50:10;;;;;;;13.55;3.53;;;3.20;99.90;;;;;;5134164;27;20096;-73
2023/03/28 06:52:36;;;;;;;13.63;2.75;;;3.20;99.90;;;;;;5129741;27;20520;-72
2023/03/28 06:55:03;;;;;;;13.55;2.72;;;3.20;99.90;;;;;;5141974;27;20053;-72
2023/03/28 06:57:29;;;;;;;9.20;2.38;;;3.20;99.90;;;;;;5154336;27;20061;-72
2023/03/28 06:59:54;;;;;;;17.30;2.70;;;3.30;99.90;;;;;;5113646;27;21423;-72
2023/03/28 07:02:20;;;;;;;14.07;2.55;;;3.20;99.90;;;;;;5118184;27;20036;-72
2023/03/28 07:04:46;;;;;;;22.40;2.80;;;3.20;99.90;;;;;;5118591;27;20156;-71
2023/03/28 07:07:12;;;;;;;14.60;2.80;;;3.20;99.90;;;;;;5131816;27;20044;-72
2023/03/28 07:09:37;;;;;;;6.68;2.13;;;3.20;99.90;;;;;;5122698;27;20036;-71
2023/03/28 07:12:04;;;;;;;13.57;2.90;;;3.10;99.90;;;;;;5115539;28;20035;-72
2023/03/28 07:14:29;;;;;;;15.93;2.60;;;3.10;99.90;;;;;;5094914;28;20105;-71
2023/03/28 07:16:56;;;;;;;13.25;2.40;;;3.30;99.90;;;;;;5133877;28;20043;-72
2023/03/28 07:19:22;;;;;;;11.52;3.10;;;3.80;99.90;;;;;;5134347;28;20058;-73
2023/03/28 07:21:48;;;;;;;11.50;3.17;;;4.70;99.90;;;;;;5126855;28;20071;-72
2023/03/28 07:24:14;;;;;;;15.70;3.35;;;5.20;99.90;;;;;;5116662;28;20094;-72
2023/03/28 07:26:40;;;;;;;14.52;3.38;;;5.70;99.90;;;;;;5124734;27;20035;-72
2023/03/28 07:29:05;;;;;;;15.63;2.63;;;5.80;99.90;;;;;;5118321;27;20053;-72
2023/03/28 07:31:31;;;;;;;12.48;2.80;;;5.90;99.90;;;;;;5118986;27;20040;-72
2023/03/28 07:33:57;;;;;;;11.60;3.00;;;5.90;99.90;;;;;;5117315;27;20046;-72
2023/03/28 07:36:24;;;;;;;11.52;2.42;;;5.90;99.90;;;;;;5099300;28;20125;-72
2023/03/28 07:38:50;;;;;;;14.27;2.92;;;5.90;99.90;;;;;;5125305;27;20044;-72
2023/03/28 07:41:16;;;;;;;14.80;3.15;;;6.00;99.90;;;;;;5116865;28;20051;-72
2023/03/28 07:43:41;;;;;;;13.60;2.75;;;6.00;99.90;;;;;;5118926;28;20061;-73
2023/03/28 07:46:15;;;;;;;13.35;2.50;;;6.10;99.90;;;;;;5121180;27;20080;-72
2023/03/28 07:48:41;;;;;;;14.80;2.88;;;6.60;99.90;;;;;;5122902;27;20050;-72
2023/03/28 07:51:09;;;;;;;13.77;2.85;;;6.30;99.90;;;;;;5118987;28;20032;-72
2023/03/28 07:53:36;;;;;;;10.80;2.63;;;6.40;99.90;;;;;;5122396;27;20043;-72
2023/03/28 07:56:03;;;;;;;9.00;2.92;;;6.50;99.90;;;;;;5139482;27;20035;-72
2023/03/28 07:58:28;;;;;;;12.20;2.63;;;6.60;99.90;;;;;;5122872;27;20043;-72
2023/03/28 08:00:55;;;;;;;8.77;2.58;;;6.70;99.90;;;;;;5121710;27;20036;-72
2023/03/28 08:03:22;;;;;;;13.10;2.33;;;6.70;99.90;;;;;;5139708;27;20337;-72
2023/03/28 08:05:51;;;;;;;7.22;1.98;;;6.80;99.90;;;;;;5140161;27;20047;-73
2023/03/28 08:08:20;;;;;;;9.80;1.92;;;6.90;99.90;;;;;;5142684;27;20118;-73
2023/03/28 08:10:49;;;;;;;9.18;2.33;;;7.00;99.90;;;;;;5144085;27;20564;-73
2023/03/28 08:13:16;;;;;;;15.98;2.90;;;8.00;99.90;;;;;;5144044;27;20103;-72
2023/03/28 08:15:42;;;;;;;9.43;2.53;;;7.30;99.90;;;;;;5098777;27;20131;-73
2023/03/28 08:18:07;;;;;;;15.60;3.05;;;7.50;99.90;;;;;;5103547;28;20078;-73
2023/03/28 08:20:33;;;;;;;11.15;2.72;;;7.60;99.90;;;;;;5123524;27;20046;-73
2023/03/28 08:23:01;;;;;;;10.82;2.75;;;7.80;99.90;;;;;;5141080;27;20046;-72
2023/03/28 08:25:27;;;;;;;9.05;2.13;;;8.10;99.90;;;;;;5140197;27;20047;-72
2023/03/28 08:27:53;;;;;;;12.20;2.35;;;8.20;99.90;;;;;;5129829;27;20122;-72
2023/03/28 08:30:19;;;;;;;8.32;2.13;;;8.50;99.90;;;;;;5103542;27;20499;-73
2023/03/28 08:32:45;;;;;;;12.57;2.50;;;8.80;99.90;;;;;;5121901;28;20040;-72
2023/03/28 08:35:11;;;;;;;8.48;2.20;;;9.00;99.90;;;;;;5119726;28;20035;-72
2023/03/28 08:37:36;;;;;;;9.25;1.88;;;9.00;99.90;;;;;;5122750;28;20100;-72
2023/03/28 08:40:07;;;;;;;9.57;1.48;;;8.90;99.90;;;;;;5141342;27;20039;-72
2023/03/28 08:42:44;;;;;;;5.22;1.52;;;8.70;99.90;;;;;;5133681;27;20066;-72
2023/03/28 08:45:30;;;;;;;9.07;2.38;;;8.50;99.90;;;;;;5143605;27;20047;-73
2023/03/28 08:48:04;;;;;;;10.57;1.77;;;8.20;99.90;;;;;;5123965;28;20051;-72
2023/03/28 08:50:40;;;;;;;5.35;1.50;;;8.10;99.90;;;;;;5104183;28;20043;-72
2023/03/28 08:53:18;;;;;;;10.23;2.10;;;8.00;99.90;;;;;;5121388;28;20059;-72
2023/03/28 08:55:46;;;;;;;11.88;1.80;;;7.90;99.90;;;;;;5122714;27;20114;-72
2023/03/28 08:58:18;;;;;;;;;;;7.90;99.90;;;;;;5126411;27;20412;-72
2023/03/28 09:00:45;;;;;;;6.03;1.50;;;8.00;99.90;;;;;;5125338;27;19916;-72
2023/03/28 09:03:13;;;;;;;7.32;1.73;;;8.00;99.90;;;;;;5132686;27;20031;-72
2023/03/28 09:05:51;;;;;;;7.85;1.77;;;8.00;99.90;;;;;;5126068;27;20488;-72
2023/03/28 09:08:40;;;;;;;7.22;1.73;;;8.00;99.90;;;;;;5127064;27;20126;-72
2023/03/28 09:11:06;;;;;;;;;;;8.00;99.90;;;;;;5130029;27;20062;-72
2023/03/28 09:13:31;;;;;;;6.78;2.13;;;8.30;99.90;;;;;;5144637;27;19966;-72
2023/03/28 09:16:22;;;;;;;7.50;1.42;;;8.20;99.90;;;;;;5124506;27;20047;-72
2023/03/28 09:19:14;;;;;;;7.03;1.92;;;8.30;99.90;;;;;;5121205;27;20039;-72
2023/03/28 09:22:01;;;;;;;10.00;1.65;;;8.50;99.90;;;;;;5078852;28;20048;-72
2023/03/28 09:24:51;;;;;;;7.85;1.80;;;8.70;99.90;;;;;;5117152;28;20048;-72
2023/03/28 09:27:34;;;;;;;12.23;2.58;;;8.70;99.90;;;;;;5100170;27;20039;-74
2023/03/28 09:30:17;;;;;;;9.13;1.95;;;8.90;99.90;;;;;;5121755;27;20096;-72
2023/03/28 09:32:42;;;;;;;8.57;1.80;;;9.10;99.90;;;;;;5116313;27;20039;-73
2023/03/28 09:35:17;;;;;;;5.20;1.42;;;9.30;99.90;;;;;;5137789;27;20126;-72
2023/03/28 09:37:49;;;;;;;6.50;1.77;;;9.30;99.90;;;;;;5117751;27;20104;-73
2023/03/28 09:40:20;;;;;;;9.30;1.80;;;9.00;99.90;;;;;;5136286;27;20043;-73
2023/03/28 09:43:13;;;;;;;7.60;1.80;;;9.00;99.90;;;;;;5135096;27;20035;-73
2023/03/28 09:45:49;;;;;;;3.85;1.23;;;8.90;99.90;;;;;;5134954;27;20043;-72
2023/03/28 09:48:24;;;;;;;11.40;1.58;;;8.90;99.90;;;;;;5118156;27;20051;-72
2023/03/28 09:50:51;;;;;;;4.05;1.40;;;8.90;99.90;;;;;;5134977;27;20504;-73
2023/03/28 09:53:23;;;;;;;7.65;1.63;;;8.90;99.90;;;;;;5136944;27;20488;-73
2023/03/28 09:55:50;;;;;;;8.95;1.65;;;9.10;99.90;;;;;;5135204;27;20472;-73
2023/03/28 09:58:17;;;;;;;9.07;1.70;;;9.30;99.90;;;;;;5135254;27;20078;-73
2023/03/28 10:00:50;;;;;;;6.70;1.40;;;9.50;99.50;;;;;;5127865;27;20094;-73
2023/03/28 10:03:31;;;;;;;6.47;2.38;;;9.50;98.90;;;;;;5127765;27;20035;-72
2023/03/28 10:06:21;;;;;;;6.78;1.42;;;9.60;99.30;;;;;;5128575;27;20038;-73
2023/03/28 10:08:47;;;;;;;5.20;1.40;;;9.60;95.70;;;;;;5141352;27;20046;-73
2023/03/28 10:11:15;;;;;;;6.82;1.70;;;9.80;96.40;;;;;;5113437;27;20055;-73
2023/03/28 10:13:46;;;;;;;4.97;1.40;;;10.00;96.60;;;;;;5121007;27;20104;-73
2023/03/28 10:16:14;;;;;;;3.13;1.27;;;10.20;97.50;;;;;;5114317;27;20044;-74
2023/03/28 10:18:41;;;;;;;6.75;1.98;;;10.50;97.10;;;;;;5095784;28;20039;-74
2023/03/28 10:21:12;;;;;;;7.73;2.70;;;10.70;96.90;;;;;;5114264;28;20032;-73
2023/03/28 10:23:42;;;;;;;7.60;2.13;;;11.00;97.20;;;;;;5118267;27;20057;-73
2023/03/28 10:26:11;;;;;;;4.78;1.58;;;11.20;97.70;;;;;;5126714;27;20126;-73
2023/03/28 10:28:37;;;;;;;7.78;2.05;;;11.30;96.50;;;;;;5121868;27;20055;-72
2023/03/28 10:31:04;;;;;;;3.97;1.80;;;11.20;94.60;;;;;;5113452;27;20413;-72
2023/03/28 10:33:35;;;;;;;10.20;2.00;;;11.00;94.60;;;;;;5113664;27;20039;-72
2023/03/28 10:36:11;;;;;;;7.53;1.40;;;10.90;94.10;;;;;;5096055;28;20515;-72
2023/03/28 10:38:44;;;;;;;6.10;1.88;;;10.90;95.60;;;;;;5121408;27;20088;-72
2023/03/28 10:41:25;;;;;;;8.35;2.45;;;10.90;96.20;;;;;;5126852;27;20039;-72
2023/03/28 10:43:50;;;;;;;9.13;2.25;;;11.10;96.20;;;;;;5131321;27;20082;-73
2023/03/28 10:46:29;;;;;;;7.65;2.00;;;11.30;96.40;;;;;;5117611;27;20067;-72
2023/03/28 10:49:04;;;;;;;9.88;1.70;;;11.20;94.10;;;;;;5113664;27;20039;-73
2023/03/28 10:51:31;;;;;;;6.47;1.63;;;10.90;95.10;;;;;;5126132;27;20044;-72
2023/03/28 10:54:00;;;;;;;7.43;1.67;;;10.60;93.90;;;;;;5122177;27;20078;-72
2023/03/28 10:56:40;;;;;;;4.65;2.00;;;10.30;94.00;;;;;;5121546;27;20043;-72
2023/03/28 10:59:30;;;;;;;5.13;1.70;;;10.10;94.80;;;;;;5113916;27;20044;-72
2023/03/28 11:02:08;;;;;;;8.68;1.90;;;10.00;95.40;;;;;;5113059;27;20048;-72
2023/03/28 11:04:55;;;;;;;7.13;1.90;;;10.20;95.40;;;;;;5111338;28;20407;-72
2023/03/28 11:07:28;;;;;;;4.88;1.70;;;10.40;96.20;;;;;;5113519;28;20047;-73
2023/03/28 11:10:06;;;;;;;5.13;2.00;;;10.70;95.00;;;;;;5078230;28;20070;-72
2023/03/28 11:12:55;;;;;;;5.15;1.95;;;10.80;95.00;;;;;;5115739;28;20395;-72
2023/03/28 11:15:30;;;;;;;5.85;2.03;;;10.70;93.10;;;;;;5118951;28;20507;-72
2023/03/28 11:18:07;;;;;;;7.38;3.22;;;10.50;95.10;;;;;;5112934;28;20400;-72
2023/03/28 11:20:42;;;;;;;7.13;2.10;;;10.40;94.80;;;;;;5115361;28;20122;-72
2023/03/28 11:23:34;;;;;;;5.20;1.92;;;10.40;95.00;;;;;;5103471;28;20130;-72
2023/03/28 11:26:12;;;;;;;9.77;2.55;;;10.30;95.50;;;;;;5132135;28;20050;-72
2023/03/28 11:29:12;;;;;;;5.90;2.00;;;10.30;96.10;;;;;;5115299;28;20034;-72
2023/03/28 11:31:44;;;;;;;6.88;2.40;;;10.30;96.60;;;;;;5114921;28;20079;-72
2023/03/28 11:34:23;;;;;;;4.68;2.05;;;10.30;96.70;;;;;;5094364;28;20488;-72
2023/03/28 11:36:56;;;;;;;;;;;10.40;96.60;;;;;;5129872;27;20042;-72
2023/03/28 11:39:49;;;;;;;8.15;3.13;;;10.50;96.60;;;;;;5130356;27;19954;-72
2023/03/28 11:42:40;;;;;;;10.57;2.40;;;10.80;96.80;;;;;;5124292;27;20050;-72
2023/03/28 11:45:24;;;;;;;8.38;2.30;;;11.20;96.80;;;;;;5116986;27;20445;-72
2023/03/28 11:48:03;;;;;;;14.00;2.58;;;11.40;94.50;;;;;;5126134;27;20082;-73
2023/03/28 11:50:49;;;;;;;5.97;2.28;;;11.40;94.50;;;;;;5120315;28;20122;-72
2023/03/28 11:53:23;;;;;;;8.68;2.70;;;11.40;93.60;;;;;;5112581;28;20052;-72
2023/03/28 11:55:58;;;;;;;7.18;2.05;;;11.70;94.60;;;;;;5102884;28;20059;-73
2023/03/28 11:58:27;;;;;;;7.47;2.03;;;12.10;94.70;;;;;;5100602;28;20047;-73
2023/03/28 12:00:55;;;;;;;8.68;2.47;;;12.30;94.20;;;;;;5117876;27;20039;-72
2023/03/28 12:03:30;;;;;;;7.20;2.60;;;12.50;94.40;;;;;;5119078;28;20046;-72
2023/03/28 12:06:28;;;;;;;6.80;2.33;;;12.70;93.70;;;;;;5119446;28;20070;-72
2023/03/28 12:09:02;;;;;;;5.97;2.22;;;12.60;92.00;;;;;;5098052;28;20047;-73
2023/03/28 12:11:39;;;;;;;9.48;2.20;;;12.70;93.20;;;;;;5119529;27;20103;-72
2023/03/28 12:14:43;;;;;;;7.30;2.70;;;12.80;92.80;;;;;;5100434;28;20043;-72
2023/03/28 12:17:25;;;;;;;9.15;2.40;;;12.90;91.70;;;;;;5100852;28;20048;-73
2023/03/28 12:19:52;;;;;;;9.07;2.60;;;13.20;91.10;;;;;;5118611;28;20083;-72
2023/03/28 12:22:39;;;;;;;8.35;2.70;;;13.20;91.60;;;;;;5119444;27;20036;-73
2023/03/28 12:25:10;;;;;;;8.20;2.50;;;13.40;90.60;;;;;;5117422;28;20047;-72
2023/03/28 12:28:09;;;;;;;5.93;2.38;;;13.30;90.60;;;;;;5125498;27;20158;-73
2023/03/28 12:30:53;;;;;;;6.88;2.53;;;13.40;90.50;;;;;;5100626;27;20047;-73
2023/03/28 12:33:44;;;;;;;6.65;2.47;;;13.30;90.30;;;;;;5118145;27;20078;-73
2023/03/28 12:36:27;;;;;;;10.70;3.03;;;13.50;90.30;;;;;;5113367;27;20043;-73
2023/03/28 12:39:11;;;;;;;8.27;2.72;;;13.60;90.40;;;;;;5116947;27;20642;-73
2023/03/28 12:41:38;;;;;;;9.20;2.88;;;13.10;89.20;;;;;;5135181;27;20058;-73
2023/03/28 12:44:14;;;;;;;10.20;3.50;;;12.70;90.40;;;;;;5131815;27;20043;-73
2023/03/28 12:46:51;;;;;;;19.23;3.08;;;12.40;90.40;;;;;;5100399;28;20051;-73
2023/03/28 12:49:40;;;;;;;9.13;2.60;;;12.20;91.00;;;;;;5132397;27;20240;-72
2023/03/28 12:52:14;;;;;;;7.03;2.70;;;12.20;91.00;;;;;;5108163;27;20130;-73
2023/03/28 12:55:06;;;;;;;10.30;2.60;;;12.10;90.10;;;;;;5108896;27;20456;-73
2023/03/28 12:57:44;;;;;;;5.38;2.40;;;12.00;89.60;;;;;;5114427;27;20039;-73
2023/03/28 13:00:30;;;;;;;9.48;3.13;;;11.60;90.80;;;;;;5131316;27;20088;-73
2023/03/28 13:03:15;;;;;;;6.22;2.53;;;11.70;91.30;;;;;;5116781;27;20043;-73
2023/03/28 13:05:48;;;;;;;10.20;3.10;;;12.20;92.90;;;;;;5126789;27;20043;-73
2023/03/28 13:08:54;;;;;;;10.10;2.97;;;12.70;91.50;;;;;;5127549;27;20151;-73
2023/03/28 13:11:48;;;;;;;7.53;2.67;;;13.00;90.30;;;;;;5122779;27;20051;-73
2023/03/28 13:14:37;;;;;;;7.70;2.33;;;13.10;89.80;;;;;;5096989;27;20192;-73